sensor_id;sensor_type;location;lat;lon;timestamp;temperature;humidity
3562;DHT22;1795;52.074;4.754;2022-12-07T00:01:19;4.60;99.90
3562;DHT22;1795;52.074;4.754;2022-12-07T00:03:48;4.60;99.90
3562;DHT22;1795;52.074;4.754;2022-12-07T00:06:18;4.50;99.90
3562;DHT22;1795;52.074;4.754;2022-12-07T00:08:47;4.50;99.90
3562;DHT22;1795;52.074;4.754;2022-12-07T00:11:18;4.60;99.90
3562;DHT22;1795;52.074;4.754;2022-12-07T00:13:47;4.60;99.90
3562;DHT22;1795;52.074;4.754;2022-12-07T00:16:20;4.50;99.90
3562;DHT22;1795;52.074;4.754;2022-12-07T00:18:48;4.50;99.90
3562;DHT22;1795;52.074;4.754;2022-12-07T00:21:18;4.50;99.90
3562;DHT22;1795;52.074;4.754;2022-12-07T00:23:47;4.50;99.90
3562;DHT22;1795;52.074;4.754;2022-12-07T00:26:19;4.50;99.90
3562;DHT22;1795;52.074;4.754;2022-12-07T00:28:48;4.50;99.90
3562;DHT22;1795;52.074;4.754;2022-12-07T00:31:18;4.50;99.90
3562;DHT22;1795;52.074;4.754;2022-12-07T00:33:47;4.50;99.90
3562;DHT22;1795;52.074;4.754;2022-12-07T00:36:17;4.50;99.90
3562;DHT22;1795;52.074;4.754;2022-12-07T00:38:52;4.50;99.90
3562;DHT22;1795;52.074;4.754;2022-12-07T00:41:23;4.40;99.90
3562;DHT22;1795;52.074;4.754;2022-12-07T00:43:51;4.40;99.90
3562;DHT22;1795;52.074;4.754;2022-12-07T00:46:20;4.40;99.90
3562;DHT22;1795;52.074;4.754;2022-12-07T00:48:49;4.40;99.90
3562;DHT22;1795;52.074;4.754;2022-12-07T00:51:19;4.40;99.90
3562;DHT22;1795;52.074;4.754;2022-12-07T00:53:47;4.40;99.90
3562;DHT22;1795;52.074;4.754;2022-12-07T00:56:16;4.40;99.90
3562;DHT22;1795;52.074;4.754;2022-12-07T00:58:52;4.40;99.90
3562;DHT22;1795;52.074;4.754;2022-12-07T01:01:20;4.30;99.90
3562;DHT22;1795;52.074;4.754;2022-12-07T01:03:48;4.30;99.90
3562;DHT22;1795;52.074;4.754;2022-12-07T01:06:18;4.30;99.90
3562;DHT22;1795;52.074;4.754;2022-12-07T01:08:46;4.30;99.90
3562;DHT22;1795;52.074;4.754;2022-12-07T01:11:16;4.30;99.90
3562;DHT22;1795;52.074;4.754;2022-12-07T01:13:44;4.30;99.90
3562;DHT22;1795;52.074;4.754;2022-12-07T01:16:16;4.30;99.90
3562;DHT22;1795;52.074;4.754;2022-12-07T01:18:47;4.30;99.90
3562;DHT22;1795;52.074;4.754;2022-12-07T01:21:17;4.20;99.90
3562;DHT22;1795;52.074;4.754;2022-12-07T01:23:45;4.20;99.90
3562;DHT22;1795;52.074;4.754;2022-12-07T01:26:15;4.20;99.90
3562;DHT22;1795;52.074;4.754;2022-12-07T01:28:43;4.20;99.90
3562;DHT22;1795;52.074;4.754;2022-12-07T01:31:15;4.20;99.90
3562;DHT22;1795;52.074;4.754;2022-12-07T01:33:45;4.20;99.90
3562;DHT22;1795;52.074;4.754;2022-12-07T01:36:15;4.20;99.90
3562;DHT22;1795;52.074;4.754;2022-12-07T01:38:44;4.20;99.90
3562;DHT22;1795;52.074;4.754;2022-12-07T01:41:13;4.20;99.90
3562;DHT22;1795;52.074;4.754;2022-12-07T01:46:45;4.10;99.90
3562;DHT22;1795;52.074;4.754;2022-12-07T01:49:19;4.10;99.90
3562;DHT22;1795;52.074;4.754;2022-12-07T01:51:49;4.10;99.90
3562;DHT22;1795;52.074;4.754;2022-12-07T01:54:20;4.10;99.90
3562;DHT22;1795;52.074;4.754;2022-12-07T01:56:51;4.10;99.90
3562;DHT22;1795;52.074;4.754;2022-12-07T01:59:22;4.10;99.90
3562;DHT22;1795;52.074;4.754;2022-12-07T02:01:53;4.10;99.90
3562;DHT22;1795;52.074;4.754;2022-12-07T02:04:22;4.10;99.90
3562;DHT22;1795;52.074;4.754;2022-12-07T02:06:50;4.10;99.90
3562;DHT22;1795;52.074;4.754;2022-12-07T02:09:19;4.10;99.90
3562;DHT22;1795;52.074;4.754;2022-12-07T02:11:47;4.10;99.90
3562;DHT22;1795;52.074;4.754;2022-12-07T02:14:15;4.10;99.90
3562;DHT22;1795;52.074;4.754;2022-12-07T02:16:53;4.10;99.90
3562;DHT22;1795;52.074;4.754;2022-12-07T02:22:33;4.10;99.90
3562;DHT22;1795;52.074;4.754;2022-12-07T02:25:08;4.10;99.90
3562;DHT22;1795;52.074;4.754;2022-12-07T02:27:45;4.10;99.90
3562;DHT22;1795;52.074;4.754;2022-12-07T02:30:16;4.10;99.90
3562;DHT22;1795;52.074;4.754;2022-12-07T02:32:51;4.10;99.90
3562;DHT22;1795;52.074;4.754;2022-12-07T02:35:27;4.10;99.90
3562;DHT22;1795;52.074;4.754;2022-12-07T02:38:02;4.20;99.90
3562;DHT22;1795;52.074;4.754;2022-12-07T02:40:37;4.10;99.90
3562;DHT22;1795;52.074;4.754;2022-12-07T02:43:09;4.20;99.90
3562;DHT22;1795;52.074;4.754;2022-12-07T02:45:41;4.10;99.90
3562;DHT22;1795;52.074;4.754;2022-12-07T02:48:14;4.10;99.90
3562;DHT22;1795;52.074;4.754;2022-12-07T02:50:45;4.10;99.90
3562;DHT22;1795;52.074;4.754;2022-12-07T02:53:30;4.10;99.90
3562;DHT22;1795;52.074;4.754;2022-12-07T02:56:00;4.10;99.90
3562;DHT22;1795;52.074;4.754;2022-12-07T02:58:38;4.10;99.90
3562;DHT22;1795;52.074;4.754;2022-12-07T03:01:17;4.10;99.90
3562;DHT22;1795;52.074;4.754;2022-12-07T03:03:51;4.10;99.90
3562;DHT22;1795;52.074;4.754;2022-12-07T03:06:24;4.00;99.90
3562;DHT22;1795;52.074;4.754;2022-12-07T03:09:04;4.10;99.90
3562;DHT22;1795;52.074;4.754;2022-12-07T03:11:41;4.00;99.90
3562;DHT22;1795;52.074;4.754;2022-12-07T03:14:14;4.00;99.90
3562;DHT22;1795;52.074;4.754;2022-12-07T03:16:50;4.00;99.90
3562;DHT22;1795;52.074;4.754;2022-12-07T03:19:22;4.00;99.90
3562;DHT22;1795;52.074;4.754;2022-12-07T03:21:54;4.00;99.90
3562;DHT22;1795;52.074;4.754;2022-12-07T03:24:29;4.00;99.90
3562;DHT22;1795;52.074;4.754;2022-12-07T03:27:03;4.00;99.90
3562;DHT22;1795;52.074;4.754;2022-12-07T03:29:36;4.00;99.90
3562;DHT22;1795;52.074;4.754;2022-12-07T03:32:11;4.00;99.90
3562;DHT22;1795;52.074;4.754;2022-12-07T03:34:44;3.90;99.90
3562;DHT22;1795;52.074;4.754;2022-12-07T03:37:18;3.90;99.90
3562;DHT22;1795;52.074;4.754;2022-12-07T03:39:53;3.90;99.90
3562;DHT22;1795;52.074;4.754;2022-12-07T03:42:25;3.90;99.90
3562;DHT22;1795;52.074;4.754;2022-12-07T03:44:53;3.90;99.90
3562;DHT22;1795;52.074;4.754;2022-12-07T03:47:27;3.90;99.90
3562;DHT22;1795;52.074;4.754;2022-12-07T03:50:00;3.90;99.90
3562;DHT22;1795;52.074;4.754;2022-12-07T03:52:33;3.90;99.90
3562;DHT22;1795;52.074;4.754;2022-12-07T03:55:08;3.90;99.90
3562;DHT22;1795;52.074;4.754;2022-12-07T03:57:38;3.90;99.90
3562;DHT22;1795;52.074;4.754;2022-12-07T04:00:09;3.90;99.90
3562;DHT22;1795;52.074;4.754;2022-12-07T04:02:39;3.90;99.90
3562;DHT22;1795;52.074;4.754;2022-12-07T04:05:08;3.90;99.90
3562;DHT22;1795;52.074;4.754;2022-12-07T04:07:36;3.90;99.90
3562;DHT22;1795;52.074;4.754;2022-12-07T04:10:05;3.90;99.90
3562;DHT22;1795;52.074;4.754;2022-12-07T04:12:33;3.90;99.90
3562;DHT22;1795;52.074;4.754;2022-12-07T04:15:02;3.90;99.90
3562;DHT22;1795;52.074;4.754;2022-12-07T04:17:30;3.90;99.90
3562;DHT22;1795;52.074;4.754;2022-12-07T04:19:59;3.90;99.90
3562;DHT22;1795;52.074;4.754;2022-12-07T04:22:28;3.90;99.90
3562;DHT22;1795;52.074;4.754;2022-12-07T04:24:56;3.90;99.90
3562;DHT22;1795;52.074;4.754;2022-12-07T04:27:24;3.90;99.90
3562;DHT22;1795;52.074;4.754;2022-12-07T04:29:52;3.90;99.90
3562;DHT22;1795;52.074;4.754;2022-12-07T04:32:20;3.90;99.90
3562;DHT22;1795;52.074;4.754;2022-12-07T04:34:48;3.80;99.90
3562;DHT22;1795;52.074;4.754;2022-12-07T04:37:23;3.90;99.90
3562;DHT22;1795;52.074;4.754;2022-12-07T04:39:51;3.80;99.90
3562;DHT22;1795;52.074;4.754;2022-12-07T04:42:19;3.80;99.90
3562;DHT22;1795;52.074;4.754;2022-12-07T04:44:46;3.90;99.90
3562;DHT22;1795;52.074;4.754;2022-12-07T04:47:15;3.80;99.90
3562;DHT22;1795;52.074;4.754;2022-12-07T04:49:43;3.80;99.90
3562;DHT22;1795;52.074;4.754;2022-12-07T04:52:11;3.80;99.90
3562;DHT22;1795;52.074;4.754;2022-12-07T04:54:40;3.90;99.90
3562;DHT22;1795;52.074;4.754;2022-12-07T04:57:08;3.80;99.90
3562;DHT22;1795;52.074;4.754;2022-12-07T04:59:36;3.90;99.90
3562;DHT22;1795;52.074;4.754;2022-12-07T05:02:11;3.90;99.90
3562;DHT22;1795;52.074;4.754;2022-12-07T05:04:39;3.90;99.90
3562;DHT22;1795;52.074;4.754;2022-12-07T05:07:07;3.90;99.90
3562;DHT22;1795;52.074;4.754;2022-12-07T05:09:35;3.90;99.90
3562;DHT22;1795;52.074;4.754;2022-12-07T05:12:04;3.90;99.90
3562;DHT22;1795;52.074;4.754;2022-12-07T05:14:32;3.90;99.90
3562;DHT22;1795;52.074;4.754;2022-12-07T05:17:00;3.90;99.90
3562;DHT22;1795;52.074;4.754;2022-12-07T05:19:28;3.90;99.90
3562;DHT22;1795;52.074;4.754;2022-12-07T05:21:56;3.90;99.90
3562;DHT22;1795;52.074;4.754;2022-12-07T05:24:24;3.90;99.90
3562;DHT22;1795;52.074;4.754;2022-12-07T05:26:52;3.90;99.90
3562;DHT22;1795;52.074;4.754;2022-12-07T05:29:22;3.80;99.90
3562;DHT22;1795;52.074;4.754;2022-12-07T05:31:50;3.90;99.90
3562;DHT22;1795;52.074;4.754;2022-12-07T05:34:18;3.80;99.90
3562;DHT22;1795;52.074;4.754;2022-12-07T05:36:46;3.80;99.90
3562;DHT22;1795;52.074;4.754;2022-12-07T05:39:14;3.80;99.90
3562;DHT22;1795;52.074;4.754;2022-12-07T05:41:42;3.80;99.90
3562;DHT22;1795;52.074;4.754;2022-12-07T05:44:28;3.80;99.90
3562;DHT22;1795;52.074;4.754;2022-12-07T05:46:56;3.80;99.90
3562;DHT22;1795;52.074;4.754;2022-12-07T05:49:24;3.80;99.90
3562;DHT22;1795;52.074;4.754;2022-12-07T05:51:52;3.80;99.90
3562;DHT22;1795;52.074;4.754;2022-12-07T05:54:20;3.80;99.90
3562;DHT22;1795;52.074;4.754;2022-12-07T05:56:48;3.80;99.90
3562;DHT22;1795;52.074;4.754;2022-12-07T05:59:17;3.80;99.90
3562;DHT22;1795;52.074;4.754;2022-12-07T06:01:52;3.80;99.90
3562;DHT22;1795;52.074;4.754;2022-12-07T06:04:21;3.80;99.90
3562;DHT22;1795;52.074;4.754;2022-12-07T06:06:49;3.80;99.90
3562;DHT22;1795;52.074;4.754;2022-12-07T06:09:18;3.80;99.90
3562;DHT22;1795;52.074;4.754;2022-12-07T06:11:46;3.80;99.90
3562;DHT22;1795;52.074;4.754;2022-12-07T06:14:32;3.80;99.90
3562;DHT22;1795;52.074;4.754;2022-12-07T06:17:02;3.80;99.90
3562;DHT22;1795;52.074;4.754;2022-12-07T06:19:30;3.80;99.90
3562;DHT22;1795;52.074;4.754;2022-12-07T06:21:58;3.80;99.90
3562;DHT22;1795;52.074;4.754;2022-12-07T06:24:26;3.80;99.90
3562;DHT22;1795;52.074;4.754;2022-12-07T06:26:54;3.80;99.90
3562;DHT22;1795;52.074;4.754;2022-12-07T06:29:23;3.80;99.90
3562;DHT22;1795;52.074;4.754;2022-12-07T06:31:51;3.80;99.90
3562;DHT22;1795;52.074;4.754;2022-12-07T06:34:21;3.80;99.90
3562;DHT22;1795;52.074;4.754;2022-12-07T06:36:50;3.80;99.90
3562;DHT22;1795;52.074;4.754;2022-12-07T06:39:21;3.70;99.90
3562;DHT22;1795;52.074;4.754;2022-12-07T06:41:49;3.70;99.90
3562;DHT22;1795;52.074;4.754;2022-12-07T06:44:20;3.70;99.90
3562;DHT22;1795;52.074;4.754;2022-12-07T06:46:50;3.70;99.90
3562;DHT22;1795;52.074;4.754;2022-12-07T06:49:22;3.70;99.90
3562;DHT22;1795;52.074;4.754;2022-12-07T06:51:50;3.70;99.90
3562;DHT22;1795;52.074;4.754;2022-12-07T06:54:18;3.70;99.90
3562;DHT22;1795;52.074;4.754;2022-12-07T06:56:46;3.70;99.90
3562;DHT22;1795;52.074;4.754;2022-12-07T06:59:14;3.70;99.90
3562;DHT22;1795;52.074;4.754;2022-12-07T07:01:42;3.70;99.90
3562;DHT22;1795;52.074;4.754;2022-12-07T07:04:11;3.70;99.90
3562;DHT22;1795;52.074;4.754;2022-12-07T07:06:40;3.70;99.90
3562;DHT22;1795;52.074;4.754;2022-12-07T07:09:08;3.70;99.90
3562;DHT22;1795;52.074;4.754;2022-12-07T07:11:36;3.70;99.90
3562;DHT22;1795;52.074;4.754;2022-12-07T07:14:04;3.70;99.90
3562;DHT22;1795;52.074;4.754;2022-12-07T07:16:32;3.70;99.90
3562;DHT22;1795;52.074;4.754;2022-12-07T07:19:00;3.70;99.90
3562;DHT22;1795;52.074;4.754;2022-12-07T07:21:28;3.70;99.90
3562;DHT22;1795;52.074;4.754;2022-12-07T07:23:58;3.60;99.90
3562;DHT22;1795;52.074;4.754;2022-12-07T07:26:26;3.70;99.90
3562;DHT22;1795;52.074;4.754;2022-12-07T07:28:54;3.60;99.90
3562;DHT22;1795;52.074;4.754;2022-12-07T07:31:22;3.60;99.90
3562;DHT22;1795;52.074;4.754;2022-12-07T07:33:50;3.60;99.90
3562;DHT22;1795;52.074;4.754;2022-12-07T07:36:18;3.60;99.90
3562;DHT22;1795;52.074;4.754;2022-12-07T07:38:46;3.60;99.90
3562;DHT22;1795;52.074;4.754;2022-12-07T07:41:15;3.60;99.90
3562;DHT22;1795;52.074;4.754;2022-12-07T07:43:43;3.60;99.90
3562;DHT22;1795;52.074;4.754;2022-12-07T07:46:14;3.60;99.90
3562;DHT22;1795;52.074;4.754;2022-12-07T07:48:42;3.60;99.90
3562;DHT22;1795;52.074;4.754;2022-12-07T07:51:10;3.60;99.90
3562;DHT22;1795;52.074;4.754;2022-12-07T07:53:38;3.60;99.90
3562;DHT22;1795;52.074;4.754;2022-12-07T07:56:07;3.50;99.90
3562;DHT22;1795;52.074;4.754;2022-12-07T07:58:36;3.50;99.90
3562;DHT22;1795;52.074;4.754;2022-12-07T08:01:06;3.50;99.90
3562;DHT22;1795;52.074;4.754;2022-12-07T08:03:35;3.50;99.90
3562;DHT22;1795;52.074;4.754;2022-12-07T08:06:03;3.50;99.90
3562;DHT22;1795;52.074;4.754;2022-12-07T08:08:32;3.50;99.90
3562;DHT22;1795;52.074;4.754;2022-12-07T08:10:59;3.50;99.90
3562;DHT22;1795;52.074;4.754;2022-12-07T08:13:28;3.50;99.90
3562;DHT22;1795;52.074;4.754;2022-12-07T08:16:03;3.50;99.90
3562;DHT22;1795;52.074;4.754;2022-12-07T08:18:34;3.50;99.90
3562;DHT22;1795;52.074;4.754;2022-12-07T08:21:03;3.50;99.90
3562;DHT22;1795;52.074;4.754;2022-12-07T08:23:31;3.50;99.90
3562;DHT22;1795;52.074;4.754;2022-12-07T08:26:07;3.50;99.90
3562;DHT22;1795;52.074;4.754;2022-12-07T08:28:35;3.50;99.90
3562;DHT22;1795;52.074;4.754;2022-12-07T08:31:06;3.50;99.90
3562;DHT22;1795;52.074;4.754;2022-12-07T08:33:35;3.50;99.90
3562;DHT22;1795;52.074;4.754;2022-12-07T08:36:05;3.50;99.90
3562;DHT22;1795;52.074;4.754;2022-12-07T08:38:34;3.50;99.90
3562;DHT22;1795;52.074;4.754;2022-12-07T08:41:02;3.50;99.90
3562;DHT22;1795;52.074;4.754;2022-12-07T08:43:31;3.50;99.90
3562;DHT22;1795;52.074;4.754;2022-12-07T08:46:08;3.60;99.90
3562;DHT22;1795;52.074;4.754;2022-12-07T08:48:41;3.60;99.90
3562;DHT22;1795;52.074;4.754;2022-12-07T08:51:11;3.60;99.90
3562;DHT22;1795;52.074;4.754;2022-12-07T08:53:41;3.60;99.90
3562;DHT22;1795;52.074;4.754;2022-12-07T08:56:10;3.60;99.90
3562;DHT22;1795;52.074;4.754;2022-12-07T08:58:39;3.60;99.90
3562;DHT22;1795;52.074;4.754;2022-12-07T09:01:08;3.60;99.90
3562;DHT22;1795;52.074;4.754;2022-12-07T09:03:36;3.60;99.90
3562;DHT22;1795;52.074;4.754;2022-12-07T09:06:05;3.60;99.90
3562;DHT22;1795;52.074;4.754;2022-12-07T09:08:36;3.70;99.90
3562;DHT22;1795;52.074;4.754;2022-12-07T09:11:06;3.70;99.90
3562;DHT22;1795;52.074;4.754;2022-12-07T09:13:34;3.70;99.90
3562;DHT22;1795;52.074;4.754;2022-12-07T09:16:03;3.70;99.90
3562;DHT22;1795;52.074;4.754;2022-12-07T09:18:33;3.70;99.90
3562;DHT22;1795;52.074;4.754;2022-12-07T09:21:01;3.70;99.90
3562;DHT22;1795;52.074;4.754;2022-12-07T09:23:29;3.80;99.90
3562;DHT22;1795;52.074;4.754;2022-12-07T09:25:59;3.80;99.90
3562;DHT22;1795;52.074;4.754;2022-12-07T09:28:33;3.80;99.90
3562;DHT22;1795;52.074;4.754;2022-12-07T09:31:02;3.90;99.90
3562;DHT22;1795;52.074;4.754;2022-12-07T09:33:55;3.90;99.90
3562;DHT22;1795;52.074;4.754;2022-12-07T09:36:23;3.90;99.90
3562;DHT22;1795;52.074;4.754;2022-12-07T09:38:51;4.00;99.90
3562;DHT22;1795;52.074;4.754;2022-12-07T09:41:19;4.00;99.90
3562;DHT22;1795;52.074;4.754;2022-12-07T09:43:48;4.00;99.90
3562;DHT22;1795;52.074;4.754;2022-12-07T09:46:17;4.00;99.90
3562;DHT22;1795;52.074;4.754;2022-12-07T09:48:47;4.10;99.90
3562;DHT22;1795;52.074;4.754;2022-12-07T09:51:20;4.10;99.90
3562;DHT22;1795;52.074;4.754;2022-12-07T09:53:52;4.10;99.90
3562;DHT22;1795;52.074;4.754;2022-12-07T09:56:21;4.10;99.90
3562;DHT22;1795;52.074;4.754;2022-12-07T09:58:52;4.10;99.90
3562;DHT22;1795;52.074;4.754;2022-12-07T10:01:22;4.20;99.90
3562;DHT22;1795;52.074;4.754;2022-12-07T10:03:53;4.20;99.90
3562;DHT22;1795;52.074;4.754;2022-12-07T10:06:23;4.20;99.90
3562;DHT22;1795;52.074;4.754;2022-12-07T10:08:51;4.20;99.90
3562;DHT22;1795;52.074;4.754;2022-12-07T10:11:19;4.20;99.90
3562;DHT22;1795;52.074;4.754;2022-12-07T10:13:48;4.20;99.90
3562;DHT22;1795;52.074;4.754;2022-12-07T10:16:34;4.30;99.90
3562;DHT22;1795;52.074;4.754;2022-12-07T10:19:19;4.30;99.90
3562;DHT22;1795;52.074;4.754;2022-12-07T10:22:03;4.30;99.90
3562;DHT22;1795;52.074;4.754;2022-12-07T10:24:31;4.40;99.90
3562;DHT22;1795;52.074;4.754;2022-12-07T10:26:59;4.40;99.90
3562;DHT22;1795;52.074;4.754;2022-12-07T10:29:30;4.40;99.90
3562;DHT22;1795;52.074;4.754;2022-12-07T10:32:01;4.50;99.90
3562;DHT22;1795;52.074;4.754;2022-12-07T10:34:32;4.50;99.90
3562;DHT22;1795;52.074;4.754;2022-12-07T10:37:16;4.60;99.90
3562;DHT22;1795;52.074;4.754;2022-12-07T10:39:45;4.60;99.90
3562;DHT22;1795;52.074;4.754;2022-12-07T10:42:18;4.60;99.90
3562;DHT22;1795;52.074;4.754;2022-12-07T10:44:46;4.70;99.90
3562;DHT22;1795;52.074;4.754;2022-12-07T10:47:25;4.70;99.90
3562;DHT22;1795;52.074;4.754;2022-12-07T10:50:26;4.70;99.90
3562;DHT22;1795;52.074;4.754;2022-12-07T10:53:14;4.80;99.90
3562;DHT22;1795;52.074;4.754;2022-12-07T10:56:20;4.80;99.90
3562;DHT22;1795;52.074;4.754;2022-12-07T10:59:02;4.90;99.90
3562;DHT22;1795;52.074;4.754;2022-12-07T11:01:34;4.90;99.90
3562;DHT22;1795;52.074;4.754;2022-12-07T11:04:21;4.90;99.90
3562;DHT22;1795;52.074;4.754;2022-12-07T11:06:57;5.00;99.90
3562;DHT22;1795;52.074;4.754;2022-12-07T11:09:54;5.00;99.90
3562;DHT22;1795;52.074;4.754;2022-12-07T11:15:29;5.10;99.90
3562;DHT22;1795;52.074;4.754;2022-12-07T11:18:06;5.10;99.90
3562;DHT22;1795;52.074;4.754;2022-12-07T11:20:41;5.10;99.90
3562;DHT22;1795;52.074;4.754;2022-12-07T11:23:23;5.10;99.90
3562;DHT22;1795;52.074;4.754;2022-12-07T11:26:03;5.20;99.90
3562;DHT22;1795;52.074;4.754;2022-12-07T11:28:44;5.20;99.90
3562;DHT22;1795;52.074;4.754;2022-12-07T11:31:20;5.20;99.90
3562;DHT22;1795;52.074;4.754;2022-12-07T11:33:59;5.30;99.90
3562;DHT22;1795;52.074;4.754;2022-12-07T11:36:37;5.30;99.90
3562;DHT22;1795;52.074;4.754;2022-12-07T11:39:23;5.40;99.90
3562;DHT22;1795;52.074;4.754;2022-12-07T11:41:57;5.30;99.90
3562;DHT22;1795;52.074;4.754;2022-12-07T11:44:33;5.40;99.90
3562;DHT22;1795;52.074;4.754;2022-12-07T11:47:06;5.40;99.90
3562;DHT22;1795;52.074;4.754;2022-12-07T11:49:44;5.40;99.90
3562;DHT22;1795;52.074;4.754;2022-12-07T11:52:20;5.50;99.90
3562;DHT22;1795;52.074;4.754;2022-12-07T11:54:51;5.50;99.90
3562;DHT22;1795;52.074;4.754;2022-12-07T11:57:27;5.60;99.90
3562;DHT22;1795;52.074;4.754;2022-12-07T12:00:00;5.60;99.90
3562;DHT22;1795;52.074;4.754;2022-12-07T12:02:34;5.60;99.90
3562;DHT22;1795;52.074;4.754;2022-12-07T12:05:12;5.70;99.90
3562;DHT22;1795;52.074;4.754;2022-12-07T12:07:42;5.70;99.90
3562;DHT22;1795;52.074;4.754;2022-12-07T12:10:44;5.70;99.90
3562;DHT22;1795;52.074;4.754;2022-12-07T12:13:50;5.80;99.90
3562;DHT22;1795;52.074;4.754;2022-12-07T12:16:58;5.80;99.90
3562;DHT22;1795;52.074;4.754;2022-12-07T12:19:34;5.80;99.90
3562;DHT22;1795;52.074;4.754;2022-12-07T12:22:09;5.80;99.90
3562;DHT22;1795;52.074;4.754;2022-12-07T12:24:40;5.90;99.90
3562;DHT22;1795;52.074;4.754;2022-12-07T12:27:15;5.90;99.90
3562;DHT22;1795;52.074;4.754;2022-12-07T12:29:53;5.90;99.90
3562;DHT22;1795;52.074;4.754;2022-12-07T12:32:23;5.90;99.90
3562;DHT22;1795;52.074;4.754;2022-12-07T12:35:02;5.90;99.90
3562;DHT22;1795;52.074;4.754;2022-12-07T12:37:44;5.90;99.90
3562;DHT22;1795;52.074;4.754;2022-12-07T12:40:41;5.90;99.90
3562;DHT22;1795;52.074;4.754;2022-12-07T12:43:43;6.00;99.90
3562;DHT22;1795;52.074;4.754;2022-12-07T12:46:45;6.00;99.90
3562;DHT22;1795;52.074;4.754;2022-12-07T12:49:36;6.00;99.90
3562;DHT22;1795;52.074;4.754;2022-12-07T12:55:19;6.00;99.90
3562;DHT22;1795;52.074;4.754;2022-12-07T12:58:34;6.00;99.90
3562;DHT22;1795;52.074;4.754;2022-12-07T13:01:37;6.00;99.90
3562;DHT22;1795;52.074;4.754;2022-12-07T13:04:34;6.00;99.90
3562;DHT22;1795;52.074;4.754;2022-12-07T13:07:09;6.10;99.90
3562;DHT22;1795;52.074;4.754;2022-12-07T13:09:43;6.10;99.90
3562;DHT22;1795;52.074;4.754;2022-12-07T13:12:14;6.10;99.90
3562;DHT22;1795;52.074;4.754;2022-12-07T13:14:56;6.10;99.90
3562;DHT22;1795;52.074;4.754;2022-12-07T13:18:03;6.20;99.90
3562;DHT22;1795;52.074;4.754;2022-12-07T13:20:49;6.20;99.90
3562;DHT22;1795;52.074;4.754;2022-12-07T13:23:29;6.20;99.90
3562;DHT22;1795;52.074;4.754;2022-12-07T13:26:04;6.20;99.90
3562;DHT22;1795;52.074;4.754;2022-12-07T13:28:35;6.20;99.90
3562;DHT22;1795;52.074;4.754;2022-12-07T13:33:57;6.20;99.90
3562;DHT22;1795;52.074;4.754;2022-12-07T13:36:27;6.20;99.90
3562;DHT22;1795;52.074;4.754;2022-12-07T13:38:59;6.20;99.90
3562;DHT22;1795;52.074;4.754;2022-12-07T13:41:28;6.20;99.90
3562;DHT22;1795;52.074;4.754;2022-12-07T13:44:02;6.30;99.90
3562;DHT22;1795;52.074;4.754;2022-12-07T13:46:40;6.20;99.90
3562;DHT22;1795;52.074;4.754;2022-12-07T13:49:17;6.20;99.90
3562;DHT22;1795;52.074;4.754;2022-12-07T13:51:46;6.20;99.90
3562;DHT22;1795;52.074;4.754;2022-12-07T13:54:14;6.20;99.90
3562;DHT22;1795;52.074;4.754;2022-12-07T13:56:43;6.20;99.90
3562;DHT22;1795;52.074;4.754;2022-12-07T13:59:18;6.10;99.90
3562;DHT22;1795;52.074;4.754;2022-12-07T14:01:50;6.10;99.90
3562;DHT22;1795;52.074;4.754;2022-12-07T14:04:34;6.10;99.90
3562;DHT22;1795;52.074;4.754;2022-12-07T14:07:20;6.10;99.90
3562;DHT22;1795;52.074;4.754;2022-12-07T14:09:57;6.10;99.90
3562;DHT22;1795;52.074;4.754;2022-12-07T14:12:27;6.00;99.90
3562;DHT22;1795;52.074;4.754;2022-12-07T14:14:56;6.10;99.90
3562;DHT22;1795;52.074;4.754;2022-12-07T14:17:26;6.10;99.90
3562;DHT22;1795;52.074;4.754;2022-12-07T14:19:56;6.10;99.90
3562;DHT22;1795;52.074;4.754;2022-12-07T14:22:30;6.10;99.90
3562;DHT22;1795;52.074;4.754;2022-12-07T14:25:19;6.10;99.90
3562;DHT22;1795;52.074;4.754;2022-12-07T14:27:50;6.10;99.90
3562;DHT22;1795;52.074;4.754;2022-12-07T14:30:20;6.00;99.90
3562;DHT22;1795;52.074;4.754;2022-12-07T14:32:52;6.00;99.90
3562;DHT22;1795;52.074;4.754;2022-12-07T14:35:21;6.10;99.90
3562;DHT22;1795;52.074;4.754;2022-12-07T14:37:49;6.00;99.90
3562;DHT22;1795;52.074;4.754;2022-12-07T14:40:19;6.00;99.90
3562;DHT22;1795;52.074;4.754;2022-12-07T14:42:50;6.00;99.90
3562;DHT22;1795;52.074;4.754;2022-12-07T14:45:20;6.00;99.90
3562;DHT22;1795;52.074;4.754;2022-12-07T14:47:49;6.00;99.90
3562;DHT22;1795;52.074;4.754;2022-12-07T14:50:39;6.00;99.90
3562;DHT22;1795;52.074;4.754;2022-12-07T14:53:30;6.00;99.90
3562;DHT22;1795;52.074;4.754;2022-12-07T14:56:01;6.00;99.90
3562;DHT22;1795;52.074;4.754;2022-12-07T14:58:29;6.00;99.90
3562;DHT22;1795;52.074;4.754;2022-12-07T15:00:57;6.00;99.90
3562;DHT22;1795;52.074;4.754;2022-12-07T15:03:26;6.00;99.90
3562;DHT22;1795;52.074;4.754;2022-12-07T15:05:55;6.00;99.90
3562;DHT22;1795;52.074;4.754;2022-12-07T15:08:23;5.90;99.90
3562;DHT22;1795;52.074;4.754;2022-12-07T15:10:51;5.90;99.90
3562;DHT22;1795;52.074;4.754;2022-12-07T15:13:19;5.90;99.90
3562;DHT22;1795;52.074;4.754;2022-12-07T15:16:07;5.90;99.90
3562;DHT22;1795;52.074;4.754;2022-12-07T15:18:37;5.90;99.90
3562;DHT22;1795;52.074;4.754;2022-12-07T15:21:15;5.90;99.90
3562;DHT22;1795;52.074;4.754;2022-12-07T15:23:43;5.90;99.90
3562;DHT22;1795;52.074;4.754;2022-12-07T15:26:11;5.90;99.90
3562;DHT22;1795;52.074;4.754;2022-12-07T15:28:40;5.90;99.90
3562;DHT22;1795;52.074;4.754;2022-12-07T15:31:11;5.80;99.90
3562;DHT22;1795;52.074;4.754;2022-12-07T15:34:00;5.80;99.90
3562;DHT22;1795;52.074;4.754;2022-12-07T15:36:32;5.80;99.90
3562;DHT22;1795;52.074;4.754;2022-12-07T15:39:01;5.80;99.90
3562;DHT22;1795;52.074;4.754;2022-12-07T15:41:44;5.80;99.90
3562;DHT22;1795;52.074;4.754;2022-12-07T15:44:13;5.70;99.90
3562;DHT22;1795;52.074;4.754;2022-12-07T15:46:59;5.70;99.90
3562;DHT22;1795;52.074;4.754;2022-12-07T15:49:28;5.70;99.90
3562;DHT22;1795;52.074;4.754;2022-12-07T15:51:56;5.70;99.90
3562;DHT22;1795;52.074;4.754;2022-12-07T15:54:25;5.70;99.90
3562;DHT22;1795;52.074;4.754;2022-12-07T15:56:54;5.70;99.90
3562;DHT22;1795;52.074;4.754;2022-12-07T15:59:23;5.70;99.90
3562;DHT22;1795;52.074;4.754;2022-12-07T16:01:51;5.60;99.90
3562;DHT22;1795;52.074;4.754;2022-12-07T16:04:19;5.60;99.90
3562;DHT22;1795;52.074;4.754;2022-12-07T16:06:49;5.60;99.90
3562;DHT22;1795;52.074;4.754;2022-12-07T16:09:18;5.60;99.90
3562;DHT22;1795;52.074;4.754;2022-12-07T16:11:46;5.60;99.90
3562;DHT22;1795;52.074;4.754;2022-12-07T16:14:14;5.60;99.90
3562;DHT22;1795;52.074;4.754;2022-12-07T16:16:42;5.60;99.90
3562;DHT22;1795;52.074;4.754;2022-12-07T16:19:12;5.50;99.90
3562;DHT22;1795;52.074;4.754;2022-12-07T16:21:40;5.50;99.90
3562;DHT22;1795;52.074;4.754;2022-12-07T16:24:10;5.50;99.90
3562;DHT22;1795;52.074;4.754;2022-12-07T16:26:39;5.50;99.90
3562;DHT22;1795;52.074;4.754;2022-12-07T16:29:16;5.50;99.90
3562;DHT22;1795;52.074;4.754;2022-12-07T16:31:45;5.50;99.90
3562;DHT22;1795;52.074;4.754;2022-12-07T16:34:13;5.40;99.90
3562;DHT22;1795;52.074;4.754;2022-12-07T16:36:41;5.40;99.90
3562;DHT22;1795;52.074;4.754;2022-12-07T16:39:31;5.40;99.90
3562;DHT22;1795;52.074;4.754;2022-12-07T16:41:59;5.40;99.90
3562;DHT22;1795;52.074;4.754;2022-12-07T16:44:27;5.40;99.90
3562;DHT22;1795;52.074;4.754;2022-12-07T16:46:55;5.40;99.90
3562;DHT22;1795;52.074;4.754;2022-12-07T16:49:23;5.40;99.90
3562;DHT22;1795;52.074;4.754;2022-12-07T16:51:52;5.40;99.90
3562;DHT22;1795;52.074;4.754;2022-12-07T16:54:41;5.30;99.90
3562;DHT22;1795;52.074;4.754;2022-12-07T16:57:10;5.30;99.90
3562;DHT22;1795;52.074;4.754;2022-12-07T16:59:47;5.30;99.90
3562;DHT22;1795;52.074;4.754;2022-12-07T17:02:15;5.30;99.90
3562;DHT22;1795;52.074;4.754;2022-12-07T17:04:43;5.20;99.90
3562;DHT22;1795;52.074;4.754;2022-12-07T17:07:11;5.20;99.90